Time;durP1;ratioP1;P1;durP2;ratioP2;P2;SDS_P1;SDS_P2;PMS_P1;PMS_P2;Temp;Humidity;BMP_temperature;BMP_pressure;BME280_temperature;BME280_humidity;BME280_pressure;Samples;Min_cycle;Max_cycle;Signal;HPM_P1;HPM_P2
2023/11/05 00:01:51;;;;;;;0.80;0.70;;;10.50;99.90;;;;;;5032630;28;20152;-72
2023/11/05 00:04:25;;;;;;;1.00;0.50;;;10.40;99.90;;;;;;5032376;28;20409;-72
2023/11/05 00:06:51;;;;;;;1.70;0.80;;;10.40;99.90;;;;;;5032393;28;20184;-72
2023/11/05 00:09:18;;;;;;;1.30;0.60;;;10.50;99.90;;;;;;5032529;28;20421;-72
2023/11/05 00:11:44;;;;;;;0.90;0.60;;;10.50;99.90;;;;;;5032261;28;20196;-72
2023/11/05 00:14:09;;;;;;;2.27;0.50;;;10.50;99.90;;;;;;5032574;28;20406;-72
2023/11/05 00:16:35;;;;;;;0.97;0.60;;;10.50;99.90;;;;;;5032620;28;20179;-72
2023/11/05 00:19:01;;;;;;;1.53;0.73;;;10.40;99.90;;;;;;5033781;28;20645;-72
2023/11/05 00:21:26;;;;;;;0.90;0.80;;;10.50;99.90;;;;;;5035932;28;20206;-72
2023/11/05 00:23:55;;;;;;;0.80;0.60;;;10.40;99.90;;;;;;5018199;28;20221;-71
2023/11/05 00:26:20;;;;;;;1.07;0.53;;;10.40;99.90;;;;;;5035558;28;20254;-72
2023/11/05 00:28:46;;;;;;;1.20;0.60;;;10.50;99.90;;;;;;5035542;28;20399;-72
2023/11/05 00:31:20;;;;;;;1.47;0.50;;;10.60;99.90;;;;;;5035852;28;20246;-71
2023/11/05 00:33:46;;;;;;;0.90;0.60;;;10.50;99.90;;;;;;5035347;28;20154;-72
2023/11/05 00:36:11;;;;;;;1.33;0.60;;;10.40;99.90;;;;;;5035073;28;20430;-73
2023/11/05 00:38:37;;;;;;;0.73;0.50;;;10.40;99.90;;;;;;5035141;28;20207;-73
2023/11/05 00:41:04;;;;;;;0.70;0.50;;;10.40;99.90;;;;;;5035599;28;20185;-73
2023/11/05 00:43:30;;;;;;;1.30;0.60;;;10.30;99.90;;;;;;5017454;28;20175;-72
2023/11/05 00:45:55;;;;;;;1.57;0.50;;;10.40;99.90;;;;;;5035014;28;20485;-71
2023/11/05 00:48:21;;;;;;;1.00;0.50;;;10.40;99.90;;;;;;5035200;28;20210;-71
2023/11/05 00:50:46;;;;;;;1.33;0.70;;;10.40;99.90;;;;;;5035140;28;20570;-72
2023/11/05 00:53:12;;;;;;;1.20;0.80;;;10.40;99.90;;;;;;5035140;28;20535;-72
2023/11/05 00:55:37;;;;;;;0.70;0.50;;;10.40;99.90;;;;;;5035281;28;20199;-72
2023/11/05 00:58:03;;;;;;;0.80;0.50;;;10.40;99.90;;;;;;5035131;28;20185;-71
2023/11/05 01:00:28;;;;;;;1.07;0.50;;;10.30;99.90;;;;;;5034870;28;20175;-71
2023/11/05 01:02:54;;;;;;;3.23;0.80;;;10.40;99.90;;;;;;5034895;28;20181;-71
2023/11/05 01:05:20;;;;;;;3.43;0.60;;;10.40;99.90;;;;;;5034777;28;20280;-72
2023/11/05 01:07:45;;;;;;;1.53;0.60;;;10.30;99.90;;;;;;5035069;28;20182;-71
2023/11/05 01:10:11;;;;;;;3.43;0.70;;;10.30;99.90;;;;;;5034656;28;20193;-71
2023/11/05 01:12:36;;;;;;;0.73;0.50;;;10.40;99.90;;;;;;5034561;28;20173;-73
2023/11/05 01:15:03;;;;;;;1.33;0.70;;;10.40;99.90;;;;;;5034882;28;20582;-71
2023/11/05 01:17:29;;;;;;;0.70;0.50;;;10.20;99.90;;;;;;5034851;28;20305;-72
2023/11/05 01:19:55;;;;;;;2.40;0.50;;;10.30;99.90;;;;;;5034768;28;20953;-70
2023/11/05 01:22:22;;;;;;;1.17;0.70;;;10.20;99.90;;;;;;5034943;28;20181;-72
2023/11/05 01:24:48;;;;;;;0.70;0.50;;;10.30;99.90;;;;;;5034721;28;20592;-72
2023/11/05 01:27:13;;;;;;;1.63;0.60;;;10.30;99.90;;;;;;5034833;28;20455;-72
2023/11/05 01:29:39;;;;;;;0.80;0.60;;;10.30;99.90;;;;;;5015716;28;20171;-72
2023/11/05 01:32:06;;;;;;;2.97;0.60;;;10.40;99.90;;;;;;5033524;28;20176;-71
2023/11/05 01:34:32;;;;;;;0.90;0.70;;;10.40;99.90;;;;;;5034228;28;20222;-73
2023/11/05 01:36:57;;;;;;;1.00;0.60;;;10.40;99.90;;;;;;5034121;28;20413;-72
2023/11/05 01:39:23;;;;;;;1.50;0.60;;;10.40;99.90;;;;;;5034073;28;20448;-72
2023/11/05 01:41:48;;;;;;;1.10;0.60;;;10.30;99.90;;;;;;5034083;28;20172;-72
2023/11/05 01:44:14;;;;;;;2.87;0.77;;;10.30;99.90;;;;;;5033767;28;20175;-73
2023/11/05 01:46:40;;;;;;;1.50;0.63;;;10.40;99.90;;;;;;5033885;28;20253;-72
2023/11/05 01:49:05;;;;;;;1.23;0.80;;;10.40;99.90;;;;;;5034168;28;20169;-70
2023/11/05 01:51:32;;;;;;;1.20;0.73;;;10.40;99.90;;;;;;5034085;28;20407;-74
2023/11/05 01:53:59;;;;;;;0.90;0.60;;;10.40;99.90;;;;;;5033803;28;20269;-71
2023/11/05 01:56:27;;;;;;;0.80;0.53;;;10.40;99.90;;;;;;5033767;28;20461;-72
2023/11/05 01:58:54;;;;;;;1.20;0.60;;;10.40;99.90;;;;;;5033705;28;20756;-72
2023/11/05 02:01:20;;;;;;;1.73;0.80;;;10.50;99.90;;;;;;5033549;28;20406;-71
2023/11/05 02:03:45;;;;;;;1.63;0.80;;;10.50;99.90;;;;;;5015852;28;20429;-72
2023/11/05 02:06:14;;;;;;;3.30;0.80;;;10.60;99.90;;;;;;5033367;28;20309;-73
2023/11/05 02:08:41;;;;;;;1.90;0.70;;;10.60;99.90;;;;;;5033519;28;20173;-72
2023/11/05 02:11:08;;;;;;;2.13;0.80;;;10.70;99.90;;;;;;5033387;28;20441;-71
2023/11/05 02:13:51;;;;;;;0.90;0.53;;;10.70;99.90;;;;;;5034003;28;20448;-74
2023/11/05 02:16:18;;;;;;;1.00;0.60;;;10.70;99.90;;;;;;5033541;28;20444;-74
2023/11/05 02:18:44;;;;;;;2.60;0.70;;;10.80;99.90;;;;;;5033886;28;20408;-74
2023/11/05 02:21:14;;;;;;;1.40;0.77;;;10.70;99.90;;;;;;5033269;28;20920;-76
2023/11/05 02:23:39;;;;;;;1.60;0.60;;;10.80;99.90;;;;;;5033407;28;20723;-74
2023/11/05 02:26:05;;;;;;;2.40;0.73;;;10.80;99.90;;;;;;5033395;28;20471;-71
2023/11/05 02:28:33;;;;;;;2.40;0.70;;;10.90;99.90;;;;;;5033168;28;20239;-73
2023/11/05 02:30:59;;;;;;;1.13;0.57;;;10.80;99.90;;;;;;5033039;28;20598;-71
2023/11/05 02:33:24;;;;;;;1.63;0.63;;;10.80;99.90;;;;;;5033136;28;20443;-73
2023/11/05 02:35:50;;;;;;;1.77;0.63;;;10.90;99.90;;;;;;5032841;28;20199;-72
2023/11/05 02:38:15;;;;;;;1.20;0.70;;;10.90;99.90;;;;;;5033114;28;20226;-72
2023/11/05 02:40:41;;;;;;;3.50;0.97;;;10.90;99.90;;;;;;5032987;28;20262;-72
2023/11/05 02:43:06;;;;;;;1.17;0.60;;;10.90;99.90;;;;;;5032605;28;20175;-71
2023/11/05 02:45:32;;;;;;;1.30;0.60;;;11.00;99.90;;;;;;5032896;28;20645;-73
2023/11/05 02:47:58;;;;;;;3.10;0.80;;;11.10;99.90;;;;;;5033014;28;20171;-72
2023/11/05 02:50:24;;;;;;;2.80;0.70;;;11.20;99.90;;;;;;5032935;28;20448;-72
2023/11/05 02:52:49;;;;;;;4.40;1.20;;;11.10;99.90;;;;;;5032883;28;20179;-72
2023/11/05 02:55:15;;;;;;;2.20;0.70;;;11.20;99.90;;;;;;5032887;28;20299;-72
2023/11/05 02:57:40;;;;;;;1.83;0.80;;;11.20;99.90;;;;;;5032987;28;20164;-72
2023/11/05 03:00:10;;;;;;;3.50;1.20;;;11.30;99.90;;;;;;5032914;28;20207;-71
2023/11/05 03:02:35;;;;;;;1.93;0.83;;;11.40;99.90;;;;;;5032780;28;20663;-72
2023/11/05 03:05:02;;;;;;;3.60;0.80;;;11.50;99.90;;;;;;5032737;28;20484;-72
2023/11/05 03:07:28;;;;;;;2.67;0.90;;;11.40;99.90;;;;;;5033138;28;20225;-73
2023/11/05 03:09:53;;;;;;;1.50;0.80;;;11.40;99.90;;;;;;5032882;28;20919;-73
2023/11/05 03:12:19;;;;;;;3.00;0.80;;;11.50;99.90;;;;;;5032845;28;20171;-73
2023/11/05 03:14:45;;;;;;;0.93;0.70;;;11.50;99.90;;;;;;5032651;28;20235;-73
2023/11/05 03:17:10;;;;;;;3.03;0.83;;;11.50;99.90;;;;;;5032970;28;20177;-72
2023/11/05 03:19:36;;;;;;;3.37;0.90;;;11.50;99.90;;;;;;5032844;28;20181;-72
2023/11/05 03:22:01;;;;;;;5.67;0.90;;;11.40;99.90;;;;;;5032590;28;20642;-72
2023/11/05 03:24:27;;;;;;;2.90;1.03;;;11.50;99.90;;;;;;5032638;28;20218;-72
2023/11/05 03:26:55;;;;;;;1.57;0.83;;;11.50;99.90;;;;;;5032974;28;20295;-72
2023/11/05 03:29:21;;;;;;;2.80;0.93;;;11.50;99.90;;;;;;5032181;28;20789;-72
2023/11/05 03:31:50;;;;;;;2.90;0.77;;;11.60;99.90;;;;;;5032282;28;20504;-73
2023/11/05 03:34:16;;;;;;;2.20;1.00;;;11.60;99.90;;;;;;5032173;28;20191;-72
2023/11/05 03:36:41;;;;;;;5.57;1.07;;;11.60;99.90;;;;;;5014626;28;20418;-73
2023/11/05 03:39:07;;;;;;;2.30;0.83;;;11.60;99.90;;;;;;5032347;28;20405;-71
2023/11/05 03:41:33;;;;;;;1.70;0.70;;;11.60;99.90;;;;;;5033118;28;20635;-73
2023/11/05 03:43:58;;;;;;;8.40;1.10;;;11.60;99.90;;;;;;5032171;28;20179;-73
2023/11/05 03:46:24;;;;;;;2.87;1.03;;;11.70;99.90;;;;;;5031779;28;20199;-72
2023/11/05 03:48:50;;;;;;;3.93;0.90;;;11.60;99.90;;;;;;5032445;28;20174;-72
2023/11/05 03:51:16;;;;;;;2.33;1.00;;;11.60;99.90;;;;;;5031488;28;20414;-72
2023/11/05 03:53:42;;;;;;;6.30;1.23;;;11.70;99.90;;;;;;5015363;28;20179;-71
2023/11/05 03:56:09;;;;;;;3.40;1.00;;;11.70;99.90;;;;;;5035711;28;20426;-72
2023/11/05 03:58:37;;;;;;;0.90;0.70;;;11.70;99.90;;;;;;5035775;28;20171;-73
2023/11/05 04:01:04;;;;;;;1.70;1.00;;;11.70;99.90;;;;;;5035622;28;20433;-73
2023/11/05 04:03:31;;;;;;;4.23;1.07;;;11.70;99.90;;;;;;5035706;28;20446;-72
2023/11/05 04:05:56;;;;;;;3.47;1.00;;;11.70;99.90;;;;;;5035475;28;20801;-72
2023/11/05 04:08:22;;;;;;;2.00;0.90;;;11.60;99.90;;;;;;5035422;28;20403;-71
2023/11/05 04:10:47;;;;;;;2.67;1.13;;;11.60;99.90;;;;;;5035485;28;20630;-73
2023/11/05 04:13:13;;;;;;;1.83;0.97;;;11.60;99.90;;;;;;5036079;28;20582;-72
2023/11/05 04:15:38;;;;;;;1.93;0.90;;;11.60;99.90;;;;;;5017824;28;20648;-72
2023/11/05 04:18:04;;;;;;;1.40;0.73;;;11.50;99.90;;;;;;5035823;28;20170;-72
2023/11/05 04:20:29;;;;;;;2.83;1.30;;;11.50;99.90;;;;;;5035593;28;20252;-72
2023/11/05 04:22:55;;;;;;;2.03;0.90;;;11.60;99.90;;;;;;5035928;28;20178;-72
2023/11/05 04:25:20;;;;;;;2.70;0.80;;;11.60;99.90;;;;;;5035527;28;20241;-72
2023/11/05 04:27:46;;;;;;;1.70;0.90;;;11.60;99.90;;;;;;5035771;28;20724;-72
2023/11/05 04:30:12;;;;;;;2.33;1.10;;;11.70;99.90;;;;;;5017983;28;20515;-72
2023/11/05 04:32:37;;;;;;;2.73;0.80;;;11.60;99.90;;;;;;5035377;28;20199;-73
2023/11/05 04:35:04;;;;;;;4.07;1.20;;;11.70;99.90;;;;;;5035530;28;20247;-72
2023/11/05 04:37:29;;;;;;;2.30;0.80;;;11.60;99.90;;;;;;5035467;28;20175;-71
2023/11/05 04:39:55;;;;;;;3.20;1.10;;;11.60;99.90;;;;;;5035259;28;20421;-72
2023/11/05 04:42:20;;;;;;;3.57;1.10;;;11.60;99.90;;;;;;5035321;28;20203;-72
2023/11/05 04:44:46;;;;;;;5.00;1.27;;;11.70;99.90;;;;;;5035343;28;20205;-73
2023/11/05 04:47:11;;;;;;;2.33;1.10;;;11.70;99.90;;;;;;5035294;28;20195;-72
2023/11/05 04:49:37;;;;;;;1.53;1.00;;;11.80;99.90;;;;;;5035253;28;20644;-72
2023/11/05 04:52:03;;;;;;;2.07;1.13;;;11.70;99.90;;;;;;5035485;28;20529;-73
2023/11/05 04:54:28;;;;;;;4.83;1.17;;;11.80;99.90;;;;;;5035124;28;20194;-73
2023/11/05 04:56:54;;;;;;;2.40;0.90;;;11.80;99.90;;;;;;5035133;28;20178;-72
2023/11/05 04:59:19;;;;;;;3.00;1.20;;;11.80;99.90;;;;;;5035337;28;20175;-73
2023/11/05 05:01:45;;;;;;;2.83;0.97;;;11.90;99.90;;;;;;5035087;28;20251;-72
2023/11/05 05:04:11;;;;;;;3.87;0.83;;;11.90;99.90;;;;;;5034550;28;20182;-71
2023/11/05 05:06:36;;;;;;;2.10;1.10;;;11.80;99.90;;;;;;5034918;28;20192;-70
2023/11/05 05:09:03;;;;;;;2.27;0.80;;;11.80;99.90;;;;;;5034716;28;20333;-71
2023/11/05 05:11:28;;;;;;;2.03;0.80;;;11.70;99.90;;;;;;5034612;28;20265;-72
2023/11/05 05:13:54;;;;;;;2.07;0.87;;;11.70;99.90;;;;;;5035222;28;20656;-73
2023/11/05 05:16:20;;;;;;;1.67;0.83;;;11.70;99.90;;;;;;5034615;28;20196;-72
2023/11/05 05:18:46;;;;;;;2.40;1.20;;;11.80;99.90;;;;;;5034879;28;20173;-71
2023/11/05 05:21:13;;;;;;;5.30;1.20;;;11.60;99.90;;;;;;5034497;28;20233;-71
2023/11/05 05:23:38;;;;;;;1.60;0.83;;;11.60;99.90;;;;;;5034460;28;20907;-71
2023/11/05 05:26:04;;;;;;;1.57;0.73;;;11.60;99.90;;;;;;5034240;28;20465;-71
2023/11/05 05:28:30;;;;;;;2.27;0.90;;;11.60;99.90;;;;;;5034264;28;20175;-71
2023/11/05 05:30:56;;;;;;;2.23;1.00;;;11.70;99.90;;;;;;5034352;28;20406;-71
2023/11/05 05:33:22;;;;;;;2.17;0.73;;;11.60;99.90;;;;;;5034059;28;20587;-72
2023/11/05 05:35:48;;;;;;;3.43;1.00;;;11.60;99.90;;;;;;5034334;28;20568;-73
2023/11/05 05:38:13;;;;;;;3.53;1.03;;;11.60;99.90;;;;;;5034557;28;20414;-73
2023/11/05 05:40:39;;;;;;;3.20;1.00;;;11.50;99.90;;;;;;5034061;28;20173;-72
2023/11/05 05:43:05;;;;;;;1.30;0.73;;;11.40;99.90;;;;;;5034186;28;20260;-72
2023/11/05 05:45:30;;;;;;;4.67;1.03;;;11.20;99.90;;;;;;5033770;28;20200;-72
2023/11/05 05:47:56;;;;;;;2.60;1.20;;;11.20;99.90;;;;;;5016156;28;20224;-72
2023/11/05 05:50:21;;;;;;;1.30;0.80;;;11.20;99.90;;;;;;5033821;28;20239;-71
2023/11/05 05:52:47;;;;;;;2.70;0.83;;;11.20;99.90;;;;;;5015905;28;20181;-72
2023/11/05 05:55:15;;;;;;;1.90;0.83;;;11.20;99.90;;;;;;5033753;28;20223;-71
2023/11/05 05:57:41;;;;;;;2.50;1.00;;;11.20;99.90;;;;;;5033958;28;20226;-70
2023/11/05 06:00:09;;;;;;;1.80;1.23;;;11.20;99.90;;;;;;5033143;28;20496;-72
2023/11/05 06:02:35;;;;;;;2.60;0.90;;;11.30;99.90;;;;;;5034007;28;20932;-72
2023/11/05 06:05:02;;;;;;;1.83;0.90;;;11.30;99.90;;;;;;5033809;28;20467;-72
2023/11/05 06:07:31;;;;;;;2.07;1.20;;;11.30;99.90;;;;;;5034169;28;20955;-72
2023/11/05 06:09:57;;;;;;;1.80;0.80;;;11.30;99.90;;;;;;5033927;28;20784;-73
2023/11/05 06:12:23;;;;;;;1.80;1.00;;;11.20;99.90;;;;;;5033738;28;20417;-71
2023/11/05 06:14:49;;;;;;;1.27;0.87;;;11.10;99.90;;;;;;5033594;28;20429;-73
2023/11/05 06:17:14;;;;;;;2.10;0.83;;;11.10;99.90;;;;;;5033177;28;20214;-71
2023/11/05 06:19:40;;;;;;;3.13;1.27;;;11.20;99.90;;;;;;5033850;28;20249;-72
2023/11/05 06:22:05;;;;;;;2.40;0.90;;;11.20;99.90;;;;;;5033660;28;20633;-71
2023/11/05 06:24:31;;;;;;;1.77;0.90;;;11.20;99.90;;;;;;5033527;28;20344;-71
2023/11/05 06:26:56;;;;;;;1.00;0.70;;;11.10;99.90;;;;;;5033725;28;20668;-71
2023/11/05 06:29:22;;;;;;;2.40;1.00;;;11.10;99.90;;;;;;5034140;28;20225;-71
2023/11/05 06:31:47;;;;;;;1.07;0.70;;;11.20;99.90;;;;;;5033184;28;20638;-71
2023/11/05 06:34:13;;;;;;;1.97;1.20;;;11.10;99.90;;;;;;5033391;28;20178;-71
2023/11/05 06:37:02;;;;;;;2.90;0.90;;;11.00;99.90;;;;;;5034086;28;20185;-71
2023/11/05 06:39:28;;;;;;;0.97;0.60;;;11.10;99.90;;;;;;5034717;28;20175;-72
2023/11/05 06:41:53;;;;;;;3.73;1.07;;;11.10;99.90;;;;;;5033407;28;20403;-72
2023/11/05 06:44:19;;;;;;;2.03;0.80;;;11.00;99.90;;;;;;5015928;28;20943;-71
2023/11/05 06:46:45;;;;;;;1.93;0.70;;;11.10;99.90;;;;;;5033174;28;20281;-72
2023/11/05 06:49:11;;;;;;;2.40;0.90;;;11.30;99.90;;;;;;5033485;28;20170;-71
2023/11/05 06:51:36;;;;;;;1.30;0.87;;;11.30;99.90;;;;;;5033066;28;20642;-70
2023/11/05 06:54:02;;;;;;;3.33;0.80;;;11.30;99.90;;;;;;5032992;28;20195;-71
2023/11/05 06:56:27;;;;;;;1.10;0.70;;;11.30;99.90;;;;;;5032893;28;20182;-72
2023/11/05 06:58:53;;;;;;;1.33;0.87;;;11.40;99.90;;;;;;5032964;28;20537;-72
2023/11/05 07:01:18;;;;;;;1.70;0.80;;;11.30;99.90;;;;;;5032924;28;20176;-72
2023/11/05 07:03:44;;;;;;;2.80;0.60;;;11.30;99.90;;;;;;5033492;28;20534;-71
2023/11/05 07:06:13;;;;;;;0.70;0.40;;;11.30;99.90;;;;;;5032758;28;20348;-71
2023/11/05 07:08:39;;;;;;;1.10;0.60;;;11.30;99.90;;;;;;5033777;28;20780;-73
2023/11/05 07:11:09;;;;;;;2.03;0.73;;;11.30;99.90;;;;;;5033057;28;20899;-71
2023/11/05 07:13:35;;;;;;;1.93;0.90;;;11.40;99.90;;;;;;5032708;28;20418;-72
2023/11/05 07:16:01;;;;;;;1.53;0.60;;;11.50;99.90;;;;;;5032952;28;20446;-72
2023/11/05 07:18:27;;;;;;;1.00;0.50;;;11.60;99.90;;;;;;5032979;28;20414;-72
2023/11/05 07:20:52;;;;;;;1.47;0.60;;;11.40;99.90;;;;;;5032894;28;20494;-72
2023/11/05 07:23:18;;;;;;;4.93;1.00;;;11.50;99.90;;;;;;5032864;28;20536;-72
2023/11/05 07:25:44;;;;;;;1.10;0.73;;;11.50;99.90;;;;;;5032547;28;20207;-72
2023/11/05 07:28:10;;;;;;;1.90;0.63;;;11.40;99.90;;;;;;5034736;28;20665;-72
2023/11/05 07:30:35;;;;;;;0.87;0.70;;;11.50;99.90;;;;;;5036545;28;20171;-71
2023/11/05 07:33:05;;;;;;;1.80;0.60;;;11.60;99.90;;;;;;5019066;28;20422;-72
2023/11/05 07:35:31;;;;;;;2.37;0.83;;;11.70;99.90;;;;;;5036446;28;20269;-72
2023/11/05 07:37:57;;;;;;;1.40;0.77;;;11.70;99.90;;;;;;5037085;28;20420;-72
2023/11/05 07:40:23;;;;;;;2.23;0.70;;;11.70;99.90;;;;;;5036764;28;20419;-74
2023/11/05 07:42:48;;;;;;;1.37;0.60;;;11.70;99.90;;;;;;5020085;28;20912;-71
2023/11/05 07:45:14;;;;;;;1.20;0.77;;;11.70;99.90;;;;;;5036986;28;20189;-72
2023/11/05 07:47:40;;;;;;;0.80;0.60;;;11.80;99.90;;;;;;5037179;28;20226;-71
2023/11/05 07:50:10;;;;;;;1.17;0.60;;;11.90;99.90;;;;;;5036685;28;20193;-69
2023/11/05 07:52:37;;;;;;;1.00;0.53;;;12.00;99.90;;;;;;5036196;28;20232;-73
2023/11/05 07:55:07;;;;;;;2.20;1.57;;;12.10;99.90;;;;;;5036402;28;20430;-73
2023/11/05 07:57:33;;;;;;;1.87;1.23;;;12.00;99.90;;;;;;5036385;28;20413;-72
2023/11/05 07:59:59;;;;;;;7.37;6.00;;;12.10;99.90;;;;;;5036374;28;20398;-72
2023/11/05 08:02:25;;;;;;;17.53;13.63;;;12.10;99.90;;;;;;5036721;28;20751;-72
2023/11/05 08:04:51;;;;;;;1.47;0.80;;;12.00;99.90;;;;;;5036228;28;20437;-72
2023/11/05 08:07:16;;;;;;;4.57;3.87;;;12.00;99.90;;;;;;5036897;28;20200;-73
2023/11/05 08:09:42;;;;;;;1.80;1.10;;;12.10;99.90;;;;;;5036309;28;20173;-72
2023/11/05 08:12:07;;;;;;;1.70;0.93;;;12.30;99.90;;;;;;5036530;28;20173;-71
2023/11/05 08:14:33;;;;;;;0.90;0.70;;;12.30;99.90;;;;;;5036191;28;20187;-72
2023/11/05 08:16:58;;;;;;;0.90;0.50;;;12.50;99.90;;;;;;5036839;28;20639;-72
2023/11/05 08:19:24;;;;;;;1.40;0.50;;;12.50;99.90;;;;;;5036851;28;20606;-72
2023/11/05 08:21:49;;;;;;;1.40;1.17;;;12.60;99.90;;;;;;5035735;28;20183;-72
2023/11/05 08:24:15;;;;;;;1.70;0.60;;;12.60;99.90;;;;;;5035684;28;20180;-71
2023/11/05 08:26:40;;;;;;;1.37;0.77;;;12.70;99.90;;;;;;5034520;22;20236;-72
2023/11/05 08:29:06;;;;;;;2.57;0.80;;;12.60;99.90;;;;;;5016141;28;20171;-73
2023/11/05 08:31:31;;;;;;;0.80;0.60;;;12.60;99.90;;;;;;5015896;28;20175;-73
2023/11/05 08:33:57;;;;;;;0.80;0.60;;;12.60;99.90;;;;;;5016134;28;20166;-73
2023/11/05 08:36:23;;;;;;;0.90;0.70;;;12.60;99.90;;;;;;5030979;28;20190;-73
2023/11/05 08:38:49;;;;;;;1.30;0.70;;;12.40;99.90;;;;;;5034968;28;20169;-74
2023/11/05 08:41:15;;;;;;;0.80;0.50;;;12.20;99.90;;;;;;5034890;28;20168;-72
2023/11/05 08:43:41;;;;;;;3.13;0.63;;;12.20;99.90;;;;;;5035295;28;20402;-73
2023/11/05 08:46:06;;;;;;;0.70;0.47;;;12.30;99.90;;;;;;5035719;28;20455;-73
2023/11/05 08:48:32;;;;;;;0.93;0.70;;;12.30;99.90;;;;;;5035350;28;20220;-72
2023/11/05 08:50:57;;;;;;;1.43;0.70;;;12.30;99.90;;;;;;5035321;28;20227;-72
2023/11/05 08:53:24;;;;;;;1.33;0.90;;;12.30;99.90;;;;;;5035558;28;20173;-73
2023/11/05 08:55:49;;;;;;;3.33;0.60;;;12.40;99.90;;;;;;5035357;28;20190;-73
2023/11/05 08:58:18;;;;;;;2.50;0.70;;;12.50;99.90;;;;;;5035500;28;20845;-73
2023/11/05 09:00:44;;;;;;;0.80;0.50;;;12.50;99.90;;;;;;5035094;28;20274;-73
2023/11/05 09:03:12;;;;;;;3.50;2.03;;;12.60;99.90;;;;;;5035125;28;20493;-73
2023/11/05 09:05:37;;;;;;;2.03;1.27;;;12.60;99.90;;;;;;5035291;28;20183;-73
2023/11/05 09:08:03;;;;;;;17.20;11.20;;;12.60;99.90;;;;;;5035367;28;20412;-73
2023/11/05 09:10:30;;;;;;;1.57;0.80;;;12.60;99.90;;;;;;5035204;28;20195;-72
2023/11/05 09:12:57;;;;;;;4.30;3.20;;;12.60;99.90;;;;;;5035146;28;20160;-73
2023/11/05 09:15:23;;;;;;;3.70;2.17;;;12.60;99.90;;;;;;5035865;28;20457;-73
2023/11/05 09:17:49;;;;;;;9.30;7.43;;;12.60;99.90;;;;;;5036671;28;20810;-73
2023/11/05 09:20:14;;;;;;;1.67;1.03;;;12.60;99.90;;;;;;5034974;28;20171;-73
2023/11/05 09:22:41;;;;;;;5.43;4.00;;;12.70;99.90;;;;;;5034749;28;20234;-73
2023/11/05 09:25:07;;;;;;;1.83;1.40;;;12.80;99.90;;;;;;5034581;28;20713;-72
2023/11/05 09:27:34;;;;;;;2.97;1.37;;;13.10;99.90;;;;;;5034704;28;20840;-72
2023/11/05 09:30:00;;;;;;;3.43;0.93;;;13.10;99.90;;;;;;5034750;28;20404;-74
2023/11/05 09:32:26;;;;;;;1.10;0.70;;;13.30;99.90;;;;;;5034492;28;20405;-74
2023/11/05 09:34:52;;;;;;;4.00;0.80;;;13.50;99.90;;;;;;5034438;28;20190;-74
2023/11/05 09:37:18;;;;;;;1.17;0.90;;;13.70;99.90;;;;;;5034634;28;20189;-74
2023/11/05 09:39:44;;;;;;;3.00;0.70;;;13.90;99.90;;;;;;5034619;28;20503;-73
2023/11/05 09:42:15;;;;;;;0.80;0.40;;;14.00;99.90;;;;;;5034619;28;20169;-73
2023/11/05 09:44:41;;;;;;;0.80;0.40;;;13.90;99.90;;;;;;5034882;28;21083;-73
2023/11/05 09:47:09;;;;;;;1.20;0.60;;;13.90;99.90;;;;;;5034241;28;20456;-72
2023/11/05 09:49:37;;;;;;;1.13;0.50;;;13.80;99.90;;;;;;5034376;28;20175;-72
2023/11/05 09:52:03;;;;;;;1.00;0.77;;;13.90;99.90;;;;;;4995940;28;20417;-73
2023/11/05 09:54:28;;;;;;;0.90;0.60;;;14.00;99.90;;;;;;5013049;28;20421;-74
2023/11/05 09:56:55;;;;;;;1.10;0.50;;;14.00;99.90;;;;;;5014238;28;20494;-74
2023/11/05 09:59:22;;;;;;;1.40;0.57;;;13.80;99.90;;;;;;5014105;28;20229;-73
2023/11/05 10:01:54;;;;;;;0.87;0.50;;;13.90;99.90;;;;;;5031629;28;20409;-74
2023/11/05 10:04:20;;;;;;;1.80;0.70;;;14.10;99.90;;;;;;5033923;28;20405;-74
2023/11/05 10:06:47;;;;;;;1.30;0.50;;;14.10;99.90;;;;;;5033723;28;20526;-74
2023/11/05 10:09:13;;;;;;;0.90;0.50;;;14.00;99.90;;;;;;5033495;28;20216;-73
2023/11/05 10:11:46;;;;;;;2.27;0.63;;;14.10;99.90;;;;;;5071129;28;20546;-72
2023/11/05 10:14:12;;;;;;;1.83;0.70;;;13.80;99.90;;;;;;5068921;28;20408;-72
2023/11/05 10:16:38;;;;;;;2.70;0.70;;;14.00;99.90;;;;;;5070135;28;20260;-72
2023/11/05 10:19:04;;;;;;;1.10;0.70;;;14.30;99.90;;;;;;5070265;28;20445;-72
2023/11/05 10:21:37;;;;;;;1.50;0.70;;;14.00;99.90;;;;;;5068813;28;20406;-72
2023/11/05 10:24:04;;;;;;;1.53;0.70;;;14.20;99.90;;;;;;5069965;28;20402;-72
2023/11/05 10:26:31;;;;;;;0.80;0.50;;;14.00;99.90;;;;;;5068697;28;20431;-71
2023/11/05 10:28:57;;;;;;;0.80;0.50;;;14.00;99.90;;;;;;5070011;28;20849;-71
2023/11/05 10:31:24;;;;;;;3.67;0.60;;;13.80;99.90;;;;;;5069747;28;20496;-72
2023/11/05 10:33:54;;;;;;;0.80;0.53;;;14.00;99.90;;;;;;5069805;28;20433;-72
2023/11/05 10:36:21;;;;;;;1.57;0.53;;;14.20;99.90;;;;;;5069814;28;20432;-72
2023/11/05 10:38:48;;;;;;;2.13;0.77;;;14.10;99.90;;;;;;5069581;28;20434;-72
2023/11/05 10:41:17;;;;;;;1.43;0.80;;;13.70;99.90;;;;;;5069625;28;20404;-72
2023/11/05 10:43:48;;;;;;;2.60;0.80;;;13.50;99.90;;;;;;5068073;28;20785;-72
2023/11/05 10:46:18;;;;;;;1.73;0.97;;;13.30;99.90;;;;;;5069630;28;20450;-72
2023/11/05 10:48:45;;;;;;;5.70;4.67;;;13.20;99.90;;;;;;5068249;28;20925;-73
2023/11/05 10:51:12;;;;;;;3.10;1.87;;;13.20;99.90;;;;;;5069554;28;20511;-72
2023/11/05 10:53:40;;;;;;;4.53;3.07;;;13.30;99.90;;;;;;5069681;28;20403;-72
2023/11/05 10:56:33;;;;;;;1.90;1.30;;;13.30;99.90;;;;;;5069590;28;20429;-73
2023/11/05 10:58:59;;;;;;;2.20;1.80;;;13.20;99.90;;;;;;5070084;28;20424;-72
2023/11/05 11:01:30;;;;;;;5.43;1.77;;;13.30;99.90;;;;;;5069568;28;20411;-73
2023/11/05 11:04:15;;;;;;;1.70;1.30;;;13.20;99.90;;;;;;5069436;28;20414;-72
2023/11/05 11:06:43;;;;;;;0.90;0.70;;;13.00;99.90;;;;;;5069305;28;20924;-73
2023/11/05 11:09:15;;;;;;;1.33;0.70;;;13.00;99.90;;;;;;5064801;28;20425;-72
2023/11/05 11:11:40;;;;;;;0.90;0.70;;;13.00;99.90;;;;;;5068961;28;20459;-73
2023/11/05 11:14:08;;;;;;;1.10;0.60;;;13.10;99.90;;;;;;5069116;28;20419;-73
2023/11/05 11:16:36;;;;;;;1.27;0.80;;;13.10;99.90;;;;;;5069112;28;20243;-73
2023/11/05 11:19:13;;;;;;;1.43;1.33;;;13.10;99.90;;;;;;5068963;28;20434;-73
2023/11/05 11:22:03;;;;;;;0.80;0.63;;;13.10;99.90;;;;;;5062593;28;20927;-73
2023/11/05 11:24:33;;;;;;;1.00;0.73;;;13.20;99.90;;;;;;5055481;28;20471;-73
2023/11/05 11:27:00;;;;;;;0.80;0.70;;;13.00;99.90;;;;;;5054283;28;20420;-72
2023/11/05 11:29:26;;;;;;;1.83;0.90;;;13.20;99.90;;;;;;5054191;28;20419;-73
2023/11/05 11:31:53;;;;;;;0.90;0.60;;;13.00;99.90;;;;;;5055441;28;20436;-72
2023/11/05 11:34:21;;;;;;;1.30;0.90;;;12.80;99.90;;;;;;5054286;28;20937;-72
2023/11/05 11:36:57;;;;;;;1.53;1.43;;;12.90;99.90;;;;;;5054165;28;20432;-73
2023/11/05 11:39:23;;;;;;;1.30;1.17;;;13.30;99.90;;;;;;5054091;28;20824;-72
2023/11/05 11:41:48;;;;;;;1.87;1.40;;;13.10;99.90;;;;;;5055347;28;20412;-72
2023/11/05 11:44:14;;;;;;;1.10;0.80;;;13.10;99.90;;;;;;5055414;28;20407;-72
2023/11/05 11:46:40;;;;;;;0.83;0.70;;;13.00;99.90;;;;;;5053932;28;20193;-72
2023/11/05 11:49:09;;;;;;;1.43;0.97;;;13.10;99.90;;;;;;5055207;28;20182;-73
2023/11/05 11:51:35;;;;;;;3.13;0.90;;;13.10;99.90;;;;;;5055020;28;20481;-73
2023/11/05 11:54:00;;;;;;;1.00;0.77;;;13.30;99.90;;;;;;5055463;28;20404;-72
2023/11/05 11:56:26;;;;;;;1.50;1.20;;;13.30;99.90;;;;;;5055245;28;20567;-73
2023/11/05 11:58:53;;;;;;;2.03;1.63;;;13.30;99.90;;;;;;5054865;28;20228;-73
2023/11/05 12:01:18;;;;;;;1.50;1.40;;;13.40;99.90;;;;;;5054998;28;20207;-73
2023/11/05 12:03:45;;;;;;;1.10;1.00;;;13.60;99.90;;;;;;5055255;28;20491;-72
2023/11/05 12:06:11;;;;;;;3.10;1.97;;;13.50;99.90;;;;;;5053681;28;20280;-73
2023/11/05 12:08:38;;;;;;;2.30;1.53;;;13.50;99.90;;;;;;5052484;28;20409;-73
2023/11/05 12:11:06;;;;;;;1.30;0.80;;;13.50;99.90;;;;;;5054692;28;20530;-73
2023/11/05 12:13:33;;;;;;;0.93;0.80;;;13.40;99.90;;;;;;5054808;28;20460;-72
2023/11/05 12:16:00;;;;;;;0.97;0.77;;;13.50;99.90;;;;;;5054662;28;20428;-73
2023/11/05 12:18:25;;;;;;;1.20;1.00;;;13.70;99.90;;;;;;5054746;28;20418;-72
2023/11/05 12:20:51;;;;;;;1.27;0.73;;;14.30;99.90;;;;;;5054578;28;20411;-72
2023/11/05 12:23:17;;;;;;;1.20;0.90;;;14.00;99.90;;;;;;5054571;28;20233;-72
2023/11/05 12:25:51;;;;;;;1.67;1.10;;;14.40;99.90;;;;;;5054315;28;20271;-73
2023/11/05 12:28:19;;;;;;;2.70;0.80;;;14.60;99.90;;;;;;5054524;28;20164;-72
2023/11/05 12:30:44;;;;;;;1.10;1.00;;;14.30;99.90;;;;;;5054427;28;20456;-73
2023/11/05 12:33:10;;;;;;;2.87;0.70;;;14.40;99.90;;;;;;5053415;28;20410;-73
2023/11/05 12:35:35;;;;;;;1.30;0.70;;;14.30;99.90;;;;;;5054268;28;20187;-73
2023/11/05 12:38:01;;;;;;;1.67;0.80;;;14.10;99.90;;;;;;5054317;28;20170;-72
2023/11/05 12:40:27;;;;;;;1.83;0.63;;;13.70;99.90;;;;;;5054246;28;20181;-72
2023/11/05 12:42:52;;;;;;;1.23;0.60;;;13.70;99.90;;;;;;5054651;28;20579;-72